Time,TemperatureF,DewpointF,PressureIn,WindDirection,WindDirectionDegrees,WindSpeedMPH,WindSpeedGustMPH,Humidity,HourlyPrecipIn,Conditions,Clouds,dailyrainin,SoftwareType,DateUTC
2013-01-01 00:00:00,34.7,22.6,29.77,SW,232,2.2,3.5,61,0.00,CLR,,0.00,WeatherDisplay:10.37,2013-01-01 05:00:00,
2013-01-01 00:02:00,34.7,23.0,29.77,WSW,238,2.4,4.6,62,0.00,CLR,,0.00,WeatherDisplay:10.37,2013-01-01 05:02:00,
2013-01-01 00:03:00,34.6,22.9,29.77,WSW,254,2.9,4.6,62,0.00,CLR,,0.00,WeatherDisplay:10.37,2013-01-01 05:03:00,
2013-01-01 00:08:00,34.7,22.6,29.78,WNW,285,4.1,15.0,61,0.00,CLR,,0.00,WeatherDisplay:10.37,2013-01-01 05:08:00,
2013-01-01 00:13:00,34.7,23.0,29.77,West,263,3.0,5.8,62,0.00,CLR,,0.00,WeatherDisplay:10.37,2013-01-01 05:13:00,
2013-01-01 00:18:00,34.6,22.9,29.76,WSW,257,2.5,3.5,62,0.00,CLR,,0.00,WeatherDisplay:10.37,2013-01-01 05:18:00,
2013-01-01 00:24:00,34.7,23.0,29.76,WSW,256,4.1,8.1,62,0.00,CLR,,0.00,WeatherDisplay:10.37,2013-01-01 05:24:00,
2013-01-01 00:29:00,34.6,22.9,29.77,SW,236,2.7,10.4,62,0.00,CLR,,0.00,WeatherDisplay:10.37,2013-01-01 05:29:00,
2013-01-01 00:34:00,34.4,22.7,29.76,SSW,208,3.8,7.0,62,0.00,CLR,,0.00,WeatherDisplay:10.37,2013-01-01 05:34:00,
2013-01-01 00:39:00,34.4,22.7,29.77,WNW,283,2.2,5.8,62,0.00,CLR,,0.00,WeatherDisplay:10.37,2013-01-01 05:39:00,
2013-01-01 00:45:00,34.3,23.0,29.77,West,259,4.0,6.9,63,0.00,CLR,,0.00,WeatherDisplay:10.37,2013-01-01 05:45:00,
2013-01-01 00:50:00,34.3,23.4,29.76,SW,225,2.1,3.5,64,0.00,CLR,,0.00,WeatherDisplay:10.37,2013-01-01 05:50:00,
2013-01-01 00:55:00,34.3,23.0,29.76,WSW,246,4.9,9.2,63,0.00,CLR,,0.00,WeatherDisplay:10.37,2013-01-01 05:55:00,
2013-01-01 01:00:00,34.1,23.2,29.76,WSW,246,3.0,5.0,64,0.00,CLR,,0.00,WeatherDisplay:10.37,2013-01-01 06:00:00,
2013-01-01 01:06:00,34.1,23.6,29.76,West,267,2.6,4.6,65,0.00,CLR,,0.00,WeatherDisplay:10.37,2013-01-01 06:06:00,
2013-01-01 01:11:00,34.1,23.6,29.77,West,273,0.8,8.1,65,0.00,CLR,,0.00,WeatherDisplay:10.37,2013-01-01 06:11:00,
2013-01-01 01:16:00,34.1,23.6,29.77,West,259,2.0,3.5,65,0.00,CLR,,0.00,WeatherDisplay:10.37,2013-01-01 06:16:00,
2013-01-01 01:21:00,34.1,23.9,29.77,WSW,250,3.2,11.5,66,0.00,CLR,,0.00,WeatherDisplay:10.37,2013-01-01 06:21:00,
2013-01-01 01:27:00,34.3,24.1,29.76,WSW,242,2.9,3.5,66,0.00,CLR,,0.00,WeatherDisplay:10.37,2013-01-01 06:27:00,
2013-01-01 01:32:00,34.3,24.5,29.76,WNW,293,3.3,9.2,67,0.00,CLR,,0.00,WeatherDisplay:10.37,2013-01-01 06:32:00,
2013-01-01 01:37:00,34.4,24.6,29.76,WSW,250,2.8,5.0,67,0.00,CLR,,0.00,WeatherDisplay:10.37,2013-01-01 06:37:00,
2013-01-01 01:43:00,34.6,24.8,29.76,SW,215,2.8,4.6,67,0.00,CLR,,0.00,WeatherDisplay:10.37,2013-01-01 06:43:00,
2013-01-01 01:48:00,34.4,24.9,29.77,SW,214,2.2,5.8,68,0.00,CLR,,0.00,WeatherDisplay:10.37,2013-01-01 06:48:00,
2013-01-01 01:53:00,34.4,24.6,29.77,WNW,298,3.5,5.0,67,0.00,CLR,,0.00,WeatherDisplay:10.37,2013-01-01 06:53:00,
2013-01-01 01:59:00,34.6,25.1,29.77,WSW,248,4.9,5.0,68,0.00,CLR,,0.00,WeatherDisplay:10.37,2013-01-01 06:59:00,
2013-01-01 02:04:00,34.6,24.8,29.78,WSW,251,4.7,11.5,67,0.00,CLR,,0.00,WeatherDisplay:10.37,2013-01-01 07:04:00,
2013-01-01 02:09:00,34.7,25.2,29.78,WNW,286,2.4,4.6,68,0.00,CLR,,0.00,WeatherDisplay:10.37,2013-01-01 07:09:00,
2013-01-01 02:14:00,34.7,25.2,29.77,West,274,5.3,11.0,68,0.00,CLR,,0.00,WeatherDisplay:10.37,2013-01-01 07:14:00,
2013-01-01 02:20:00,34.7,25.2,29.76,West,279,3.8,7.0,68,0.00,CLR,,0.00,WeatherDisplay:10.37,2013-01-01 07:20:00,
2013-01-01 02:25:00,34.7,25.6,29.76,West,278,5.6,7.0,69,0.00,CLR,,0.00,WeatherDisplay:10.37,2013-01-01 07:25:00,
2013-01-01 02:30:00,34.7,25.6,29.76,SW,235,3.2,5.8,69,0.00,CLR,,0.00,WeatherDisplay:10.37,2013-01-01 07:30:00,
2013-01-01 02:35:00,34.7,25.6,29.76,SW,234,4.2,9.2,69,0.00,CLR,,0.00,WeatherDisplay:10.37,2013-01-01 07:35:00,
2013-01-01 02:41:00,34.7,25.9,29.76,West,276,3.7,6.9,70,0.00,CLR,,0.00,WeatherDisplay:10.37,2013-01-01 07:41:00,
2013-01-01 02:46:00,34.7,25.9,29.75,West,273,4.2,4.6,70,0.00,CLR,,0.00,WeatherDisplay:10.37,2013-01-01 07:46:00,
2013-01-01 02:51:00,34.7,26.3,29.75,WNW,286,0.5,3.0,71,0.00,CLR,,0.00,WeatherDisplay:10.37,2013-01-01 07:51:00,
2013-01-01 02:56:00,34.7,26.3,29.75,WNW,296,4.0,5.8,71,0.00,CLR,,0.00,WeatherDisplay:10.37,2013-01-01 07:56:00,
2013-01-01 03:02:00,34.9,26.1,29.75,WSW,252,1.7,4.6,70,0.00,CLR,,0.00,WeatherDisplay:10.37,2013-01-01 08:02:00,
2013-01-01 03:07:00,34.9,26.4,29.76,WSW,251,2.6,5.8,71,0.00,CLR,,0.00,WeatherDisplay:10.37,2013-01-01 08:07:00,
2013-01-01 03:12:00,34.9,26.1,29.75,WNW,285,4.3,6.9,70,0.00,CLR,,0.00,WeatherDisplay:10.37,2013-01-01 08:12:00,
2013-01-01 03:17:00,34.9,26.4,29.76,West,269,4.7,8.1,71,0.00,CLR,,0.00,WeatherDisplay:10.37,2013-01-01 08:17:00,
2013-01-01 03:23:00,34.9,26.4,29.76,SW,230,3.9,6.9,71,0.00,CLR,,0.00,WeatherDisplay:10.37,2013-01-01 08:23:00,
2013-01-01 03:28:00,34.9,26.1,29.76,West,262,4.3,6.9,70,0.00,CLR,,0.00,WeatherDisplay:10.37,2013-01-01 08:28:00,
2013-01-01 03:33:00,35.0,26.2,29.76,West,268,2.6,3.5,70,0.00,CLR,,0.00,WeatherDisplay:10.37,2013-01-01 08:33:00,
2013-01-01 03:38:00,34.9,26.1,29.76,WSW,251,2.9,5.8,70,0.00,CLR,,0.00,WeatherDisplay:10.37,2013-01-01 08:38:00,
2013-01-01 03:44:00,35.0,25.9,29.76,WSW,246,5.0,13.8,69,0.00,CLR,,0.00,WeatherDisplay:10.37,2013-01-01 08:44:00,
2013-01-01 03:49:00,35.0,26.2,29.76,WSW,246,4.8,6.9,70,0.00,CLR,,0.00,WeatherDisplay:10.37,2013-01-01 08:49:00,
2013-01-01 03:54:00,35.0,26.2,29.76,WSW,244,4.2,6.0,70,0.00,CLR,,0.00,WeatherDisplay:10.37,2013-01-01 08:54:00,
2013-01-01 04:00:00,35.0,26.2,29.76,WSW,242,3.7,5.8,70,0.00,CLR,,0.00,WeatherDisplay:10.37,2013-01-01 09:00:00,
2013-01-01 04:05:00,35.2,26.4,29.76,WSW,250,4.7,7.0,70,0.00,CLR,,0.00,WeatherDisplay:10.37,2013-01-01 09:05:00,
2013-01-01 04:10:00,35.2,26.7,29.76,WSW,248,2.0,3.5,71,0.00,CLR,,0.00,WeatherDisplay:10.37,2013-01-01 09:10:00,
2013-01-01 04:16:00,35.0,26.5,29.76,WSW,244,1.1,3.5,71,0.00,CLR,,0.00,WeatherDisplay:10.37,2013-01-01 09:16:00,
2013-01-01 04:21:00,35.0,26.2,29.76,West,279,1.8,3.5,70,0.00,CLR,,0.00,WeatherDisplay:10.37,2013-01-01 09:21:00,
2013-01-01 04:26:00,35.2,26.4,29.76,West,260,3.2,5.8,70,0.00,CLR,,0.00,WeatherDisplay:10.37,2013-01-01 09:26:00,
2013-01-01 04:31:00,35.2,26.4,29.76,WSW,249,1.6,3.5,70,0.00,CLR,,0.00,WeatherDisplay:10.37,2013-01-01 09:31:00,
2013-01-01 04:37:00,35.2,26.4,29.76,NW,305,2.9,5.8,70,0.00,CLR,,0.00,WeatherDisplay:10.37,2013-01-01 09:37:00,
2013-01-01 04:42:00,35.3,26.5,29.76,WSW,245,4.0,12.7,70,0.00,CLR,,0.00,WeatherDisplay:10.37,2013-01-01 09:42:00,
2013-01-01 04:47:00,35.3,26.5,29.76,WSW,253,3.6,5.8,70,0.00,CLR,,0.00,WeatherDisplay:10.37,2013-01-01 09:47:00,
2013-01-01 04:53:00,35.3,26.5,29.76,WSW,249,6.5,12.7,70,0.00,CLR,,0.00,WeatherDisplay:10.37,2013-01-01 09:53:00,
2013-01-01 04:58:00,35.3,26.5,29.76,West,260,5.0,9.2,70,0.00,CLR,,0.00,WeatherDisplay:10.37,2013-01-01 09:58:00,
2013-01-01 05:03:00,35.3,26.8,29.76,West,269,3.1,5.8,71,0.00,CLR,,0.00,WeatherDisplay:10.37,2013-01-01 10:03:00,
2013-01-01 05:08:00,35.3,26.8,29.76,SW,223,2.8,4.0,71,0.00,CLR,,0.00,WeatherDisplay:10.37,2013-01-01 10:08:00,
2013-01-01 05:14:00,35.5,27.0,29.76,West,267,3.0,11.5,71,0.00,CLR,,0.00,WeatherDisplay:10.37,2013-01-01 10:14:00,
2013-01-01 05:19:00,35.5,26.7,29.76,West,279,1.3,3.5,70,0.00,CLR,,0.00,WeatherDisplay:10.37,2013-01-01 10:19:00,
2013-01-01 05:24:00,35.5,27.0,29.76,WSW,255,3.6,6.9,71,0.00,CLR,,0.00,WeatherDisplay:10.37,2013-01-01 10:24:00,
2013-01-01 05:30:00,35.5,27.0,29.76,WSW,239,3.9,6.9,71,0.00,CLR,,0.00,WeatherDisplay:10.37,2013-01-01 10:30:00,
2013-01-01 05:35:00,35.5,27.0,29.76,WNW,288,5.4,11.5,71,0.00,CLR,,0.00,WeatherDisplay:10.37,2013-01-01 10:35:00,
2013-01-01 05:40:00,35.5,27.0,29.76,West,262,1.9,3.5,71,0.00,CLR,,0.00,WeatherDisplay:10.37,2013-01-01 10:40:00,
2013-01-01 05:46:00,35.6,26.8,29.76,WNW,282,2.9,9.2,70,0.00,CLR,,0.00,WeatherDisplay:10.37,2013-01-01 10:46:00,
2013-01-01 05:51:00,35.8,27.3,29.76,WSW,243,2.1,3.5,71,0.00,CLR,,0.00,WeatherDisplay:10.37,2013-01-01 10:51:00,
2013-01-01 05:56:00,35.6,27.1,29.76,WNW,283,2.9,6.0,71,0.00,CLR,,0.00,WeatherDisplay:10.37,2013-01-01 10:56:00,
2013-01-01 06:01:00,35.6,27.1,29.76,WNW,301,2.7,3.5,71,0.00,CLR,,0.00,WeatherDisplay:10.37,2013-01-01 11:01:00,
2013-01-01 06:07:00,35.6,26.8,29.76,West,279,5.3,8.1,70,0.00,CLR,,0.00,WeatherDisplay:10.37,2013-01-01 11:07:00,
2013-01-01 06:12:00,35.6,27.1,29.76,WSW,244,4.0,5.8,71,0.00,CLR,,0.00,WeatherDisplay:10.37,2013-01-01 11:12:00,
2013-01-01 06:17:00,35.8,27.3,29.76,WNW,289,1.7,5.8,71,0.00,CLR,,0.00,WeatherDisplay:10.37,2013-01-01 11:17:00,
2013-01-01 06:22:00,35.6,27.1,29.78,West,259,5.0,10.4,71,0.00,CLR,,0.00,WeatherDisplay:10.37,2013-01-01 11:22:00,
2013-01-01 06:28:00,35.8,27.3,29.77,West,273,4.1,9.2,71,0.00,CLR,,0.00,WeatherDisplay:10.37,2013-01-01 11:28:00,
2013-01-01 06:33:00,35.8,27.3,29.77,WNW,283,3.7,8.1,71,0.00,CLR,,0.00,WeatherDisplay:10.37,2013-01-01 11:33:00,
2013-01-01 06:38:00,35.8,27.3,29.77,West,261,3.6,5.8,71,0.00,CLR,,0.00,WeatherDisplay:10.37,2013-01-01 11:38:00,
2013-01-01 06:43:00,35.6,27.1,29.77,WNW,284,2.0,4.6,71,0.00,CLR,,0.00,WeatherDisplay:10.37,2013-01-01 11:43:00,
2013-01-01 06:49:00,35.6,27.1,29.77,NNW,327,2.6,9.2,71,0.00,CLR,,0.00,WeatherDisplay:10.37,2013-01-01 11:49:00,
2013-01-01 06:54:00,35.6,27.1,29.76,WNW,284,1.2,4.0,71,0.00,CLR,,0.00,WeatherDisplay:10.37,2013-01-01 11:54:00,
2013-01-01 06:59:00,35.5,27.0,29.77,WSW,254,2.6,5.0,71,0.00,CLR,,0.00,WeatherDisplay:10.37,2013-01-01 11:59:00,
2013-01-01 07:04:00,35.6,27.1,29.77,West,277,2.0,4.0,71,0.00,CLR,,0.00,WeatherDisplay:10.37,2013-01-01 12:04:00,
2013-01-01 07:10:00,35.6,27.1,29.78,West,270,2.0,3.5,71,0.00,CLR,,0.00,WeatherDisplay:10.37,2013-01-01 12:10:00,
2013-01-01 07:15:00,35.5,27.0,29.77,West,279,1.1,4.6,71,0.00,CLR,,0.00,WeatherDisplay:10.37,2013-01-01 12:15:00,
2013-01-01 07:20:00,35.5,27.0,29.78,West,279,1.2,3.5,71,0.00,CLR,,0.00,WeatherDisplay:10.37,2013-01-01 12:20:00,
2013-01-01 07:26:00,35.5,27.0,29.77,NNW,344,4.4,4.6,71,0.00,CLR,,0.00,WeatherDisplay:10.37,2013-01-01 12:26:00,
2013-01-01 07:31:00,35.5,27.0,29.77,West,268,1.6,3.5,71,0.00,CLR,,0.00,WeatherDisplay:10.37,2013-01-01 12:31:00,
2013-01-01 07:36:00,35.5,27.0,29.77,West,265,5.1,5.8,71,0.00,CLR,,0.00,WeatherDisplay:10.37,2013-01-01 12:36:00,
2013-01-01 07:41:00,35.5,27.0,29.77,WNW,291,2.6,4.6,71,0.00,CLR,,0.00,WeatherDisplay:10.37,2013-01-01 12:41:00,
2013-01-01 07:47:00,35.5,26.7,29.78,WNW,288,2.0,5.0,70,0.00,CLR,,0.00,WeatherDisplay:10.37,2013-01-01 12:47:00,
2013-01-01 07:52:00,35.3,26.5,29.78,WSW,250,2.1,5.8,70,0.00,CLR,,0.00,WeatherDisplay:10.37,2013-01-01 12:52:00,
2013-01-01 07:57:00,35.3,26.1,29.78,WNW,283,3.4,4.6,69,0.00,CLR,,0.00,WeatherDisplay:10.37,2013-01-01 12:57:00,
2013-01-01 08:02:00,35.3,26.1,29.78,WNW,284,3.8,5.8,69,0.00,CLR,,0.00,WeatherDisplay:10.37,2013-01-01 13:02:00,
2013-01-01 08:07:00,35.3,26.1,29.78,WNW,284,2.1,3.5,69,0.00,CLR,,0.00,WeatherDisplay:10.37,2013-01-01 13:07:00,
2013-01-01 08:13:00,35.3,26.1,29.78,WNW,288,2.6,4.6,69,0.00,CLR,,0.00,WeatherDisplay:10.37,2013-01-01 13:13:00,
2013-01-01 08:18:00,35.3,26.1,29.78,WNW,294,2.0,3.5,69,0.00,CLR,,0.00,WeatherDisplay:10.37,2013-01-01 13:18:00,
2013-01-01 08:23:00,35.3,26.1,29.79,West,269,0.9,3.5,69,0.00,CLR,,0.00,WeatherDisplay:10.37,2013-01-01 13:23:00,
2013-01-01 08:28:00,35.3,26.1,29.79,WNW,284,1.7,5.8,69,0.00,CLR,,0.00,WeatherDisplay:10.37,2013-01-01 13:28:00,
2013-01-01 08:33:00,35.3,26.1,29.79,WNW,282,2.6,4.6,69,0.00,CLR,,0.00,WeatherDisplay:10.37,2013-01-01 13:33:00,
2013-01-01 08:39:00,35.3,26.1,29.79,WNW,299,1.8,5.0,69,0.00,CLR,,0.00,WeatherDisplay:10.37,2013-01-01 13:39:00,
2013-01-01 08:44:00,35.3,25.8,29.79,West,281,0.5,3.5,68,0.00,CLR,,0.00,WeatherDisplay:10.37,2013-01-01 13:44:00,
2013-01-01 08:49:00,35.3,25.8,29.79,WNW,285,1.1,5.8,68,0.00,CLR,,0.00,WeatherDisplay:10.37,2013-01-01 13:49:00,
2013-01-01 08:54:00,35.5,25.6,29.79,WNW,298,3.3,4.6,67,0.00,CLR,,0.00,WeatherDisplay:10.37,2013-01-01 13:54:00,
2013-01-01 09:00:00,35.5,26.0,29.79,West,269,0.6,2.3,68,0.00,CLR,,0.00,WeatherDisplay:10.37,2013-01-01 14:00:00,
2013-01-01 09:05:00,35.5,26.0,29.79,West,280,2.0,3.5,68,0.00,CLR,,0.00,WeatherDisplay:10.37,2013-01-01 14:05:00,
2013-01-01 09:10:00,35.5,25.6,29.79,WNW,292,1.9,3.5,67,0.00,CLR,,0.00,WeatherDisplay:10.37,2013-01-01 14:10:00,
2013-01-01 09:15:00,35.5,25.6,29.79,WSW,254,3.3,5.8,67,0.00,CLR,,0.00,WeatherDisplay:10.37,2013-01-01 14:15:00,
2013-01-01 09:20:00,35.6,25.4,29.80,NW,312,2.4,3.5,66,0.00,CLR,,0.00,WeatherDisplay:10.37,2013-01-01 14:20:00,
2013-01-01 09:26:00,35.8,25.5,29.80,WNW,288,0.3,2.3,66,0.00,CLR,,0.00,WeatherDisplay:10.37,2013-01-01 14:26:00,
2013-01-01 09:31:00,35.9,25.6,29.81,NNW,339,1.8,4.0,66,0.00,CLR,,0.00,WeatherDisplay:10.37,2013-01-01 14:31:00,
2013-01-01 09:36:00,36.0,25.0,29.80,West,265,2.6,2.6,64,0.00,CLR,,0.00,WeatherDisplay:10.37,2013-01-01 14:36:00,
2013-01-01 09:41:00,36.2,24.8,29.81,West,279,3.0,6.9,63,0.00,CLR,,0.00,WeatherDisplay:10.37,2013-01-01 14:41:00,
2013-01-01 09:47:00,36.3,24.9,29.81,WNW,290,3.4,5.8,63,0.00,CLR,,0.00,WeatherDisplay:10.37,2013-01-01 14:47:00,
2013-01-01 09:52:00,36.3,24.5,29.80,WNW,302,4.0,5.0,62,0.00,CLR,,0.00,WeatherDisplay:10.37,2013-01-01 14:52:00,
2013-01-01 09:57:00,36.3,24.5,29.80,WNW,298,3.1,4.6,62,0.00,CLR,,0.00,WeatherDisplay:10.37,2013-01-01 14:57:00,
2013-01-01 10:02:00,36.2,24.0,29.79,West,274,3.7,7.0,61,0.00,CLR,,0.00,WeatherDisplay:10.37,2013-01-01 15:02:00,
2013-01-01 10:07:00,36.3,23.3,29.79,WNW,296,7.4,13.8,59,0.00,CLR,,0.00,WeatherDisplay:10.37,2013-01-01 15:07:00,
2013-01-01 10:13:00,36.5,23.1,29.79,WNW,302,5.9,11.5,58,0.00,CLR,,0.00,WeatherDisplay:10.37,2013-01-01 15:13:00,
2013-01-01 10:18:00,36.6,22.8,29.80,WNW,297,6.5,12.7,57,0.00,CLR,,0.00,WeatherDisplay:10.37,2013-01-01 15:18:00,
2013-01-01 10:23:00,36.6,22.8,29.80,WNW,284,5.0,11.0,57,0.00,CLR,,0.00,WeatherDisplay:10.37,2013-01-01 15:23:00,
2013-01-01 10:28:00,36.6,22.4,29.81,West,281,8.8,15.0,56,0.00,CLR,,0.00,WeatherDisplay:10.37,2013-01-01 15:28:00,
2013-01-01 10:33:00,36.6,22.8,29.81,West,271,5.1,11.5,57,0.00,CLR,,0.00,WeatherDisplay:10.37,2013-01-01 15:33:00,
2013-01-01 10:38:00,36.6,22.4,29.80,West,271,8.1,12.7,56,0.00,CLR,,0.00,WeatherDisplay:10.37,2013-01-01 15:38:00,
2013-01-01 10:43:00,36.6,21.9,29.79,West,268,7.6,12.7,55,0.00,CLR,,0.00,WeatherDisplay:10.37,2013-01-01 15:43:00,
2013-01-01 10:49:00,36.6,22.4,29.79,NNW,339,4.2,11.0,56,0.00,CLR,,0.00,WeatherDisplay:10.37,2013-01-01 15:49:00,
2013-01-01 10:54:00,36.8,22.6,29.79,NW,311,6.0,9.2,56,0.00,CLR,,0.00,WeatherDisplay:10.37,2013-01-01 15:54:00,
2013-01-01 10:59:00,36.9,22.7,29.79,WNW,296,6.0,11.5,56,0.00,CLR,,0.00,WeatherDisplay:10.37,2013-01-01 15:59:00,
2013-01-01 11:04:00,37.0,22.7,29.80,NW,315,6.0,9.2,56,0.00,CLR,,0.00,WeatherDisplay:10.37,2013-01-01 16:04:00,
2013-01-01 11:10:00,37.2,22.5,29.80,West,267,9.6,14.0,55,0.00,CLR,,0.00,WeatherDisplay:10.37,2013-01-01 16:10:00,
2013-01-01 11:15:00,36.9,22.2,29.79,NW,323,4.4,6.9,55,0.01,RA,,0.01,WeatherDisplay:10.37,2013-01-01 16:15:00,
2013-01-01 11:20:00,37.0,21.4,29.79,NNW,329,9.6,15.0,53,0.01,RA,,0.01,WeatherDisplay:10.37,2013-01-01 16:20:00,
2013-01-01 11:25:00,36.8,20.8,29.79,North,350,11.2,17.3,52,0.01,CLR,,0.01,WeatherDisplay:10.37,2013-01-01 16:25:00,
2013-01-01 11:30:00,36.8,20.3,29.79,WNW,288,7.0,12.7,51,0.01,,,0.01,WeatherDisplay:10.37,2013-01-01 16:30:00,
2013-01-01 11:35:00,36.8,20.8,29.78,West,276,4.6,6.9,52,0.01,,,0.01,WeatherDisplay:10.37,2013-01-01 16:35:00,
2013-01-01 11:41:00,36.9,21.3,29.77,NNW,338,2.4,3.5,53,0.01,,,0.01,WeatherDisplay:10.37,2013-01-01 16:41:00,
2013-01-01 11:46:00,36.9,21.8,29.77,West,269,6.3,6.9,54,0.01,,,0.01,WeatherDisplay:10.37,2013-01-01 16:46:00,
2013-01-01 11:51:00,36.8,21.3,29.77,NW,306,6.6,10.4,53,0.01,,,0.01,WeatherDisplay:10.37,2013-01-01 16:51:00,
2013-01-01 11:56:00,36.8,21.3,29.76,NW,323,3.6,6.9,53,0.01,,,0.01,WeatherDisplay:10.37,2013-01-01 16:56:00,
2013-01-01 12:01:00,36.6,21.5,29.76,NNW,332,3.3,4.6,54,0.01,,,0.01,WeatherDisplay:10.37,2013-01-01 17:01:00,
2013-01-01 12:07:00,36.5,20.1,29.76,NW,325,7.1,11.5,51,0.01,,,0.01,WeatherDisplay:10.37,2013-01-01 17:07:00,
2013-01-01 12:12:00,36.2,20.2,29.76,NW,319,6.2,10.4,52,0.01,,,0.01,WeatherDisplay:10.37,2013-01-01 17:12:00,
2013-01-01 12:17:00,36.0,20.1,29.76,West,261,10.0,15.0,52,0.00,CLR,,0.01,WeatherDisplay:10.37,2013-01-01 17:17:00,
2013-01-01 12:22:00,35.9,20.0,29.76,NW,313,2.2,11.5,52,0.00,CLR,,0.01,WeatherDisplay:10.37,2013-01-01 17:22:00,
2013-01-01 12:28:00,35.6,19.7,29.76,NW,310,3.3,6.0,52,0.00,CLR,,0.01,WeatherDisplay:10.37,2013-01-01 17:28:00,
2013-01-01 12:33:00,35.5,19.6,29.76,WNW,286,9.9,13.0,52,0.00,CLR,,0.01,WeatherDisplay:10.37,2013-01-01 17:33:00,
2013-01-01 12:38:00,35.3,19.9,29.77,NNW,331,6.5,6.5,53,0.00,CLR,,0.01,WeatherDisplay:10.37,2013-01-01 17:38:00,
2013-01-01 12:43:00,35.2,18.9,29.76,NNW,347,5.6,12.7,51,0.00,CLR,,0.01,WeatherDisplay:10.37,2013-01-01 17:43:00,
2013-01-01 12:49:00,35.2,19.3,29.76,NW,310,6.4,10.4,52,0.00,CLR,,0.01,WeatherDisplay:10.37,2013-01-01 17:49:00,
2013-01-01 12:54:00,35.0,19.6,29.76,NW,325,4.9,12.7,53,0.00,CLR,,0.01,WeatherDisplay:10.37,2013-01-01 17:54:00,
2013-01-01 12:59:00,34.9,19.0,29.76,NNW,335,6.8,11.5,52,0.00,CLR,,0.01,WeatherDisplay:10.37,2013-01-01 17:59:00,
2013-01-01 13:04:00,34.9,19.5,29.76,NW,309,4.0,8.1,53,0.00,CLR,,0.01,WeatherDisplay:10.37,2013-01-01 18:04:00,
2013-01-01 13:09:00,35.2,19.3,29.76,NW,326,8.0,11.5,52,0.00,CLR,,0.01,WeatherDisplay:10.37,2013-01-01 18:09:00,
2013-01-01 13:15:00,35.3,19.9,29.76,NNW,333,3.0,5.8,53,0.00,CLR,,0.01,WeatherDisplay:10.37,2013-01-01 18:15:00,
2013-01-01 13:20:00,35.3,19.9,29.76,NW,309,2.7,4.6,53,0.00,CLR,,0.01,WeatherDisplay:10.37,2013-01-01 18:20:00,
2013-01-01 13:25:00,35.2,19.3,29.76,NW,315,7.6,11.5,52,0.00,CLR,,0.01,WeatherDisplay:10.37,2013-01-01 18:25:00,
2013-01-01 13:30:00,35.2,19.8,29.76,NNW,331,7.0,10.4,53,0.00,CLR,,0.01,WeatherDisplay:10.37,2013-01-01 18:30:00,
2013-01-01 13:35:00,35.2,19.8,29.76,West,280,2.2,3.5,53,0.00,CLR,,0.01,WeatherDisplay:10.37,2013-01-01 18:35:00,
2013-01-01 13:40:00,35.2,18.9,29.76,West,272,8.4,11.5,51,0.00,CLR,,0.01,WeatherDisplay:10.37,2013-01-01 18:40:00,
2013-01-01 13:46:00,35.2,19.3,29.76,NW,312,2.8,3.5,52,0.00,CLR,,0.01,WeatherDisplay:10.37,2013-01-01 18:46:00,
2013-01-01 13:51:00,35.3,19.9,29.76,NW,321,4.4,5.8,53,0.00,CLR,,0.01,WeatherDisplay:10.37,2013-01-01 18:51:00,
2013-01-01 13:56:00,35.3,19.0,29.76,West,277,7.4,11.5,51,0.00,CLR,,0.01,WeatherDisplay:10.37,2013-01-01 18:56:00,
2013-01-01 14:01:00,35.2,19.3,29.76,WNW,285,6.2,11.5,52,0.00,CLR,,0.01,WeatherDisplay:10.37,2013-01-01 19:01:00,
2013-01-01 14:07:00,35.0,18.2,29.76,NW,313,8.5,13.8,50,0.00,CLR,,0.01,WeatherDisplay:10.37,2013-01-01 19:07:00,
2013-01-01 14:12:00,34.6,20.9,29.76,NE,45,5.9,11.5,57,0.00,CLR,,0.01,WeatherDisplay:10.37,2013-01-01 19:12:00,
2013-01-01 14:17:00,33.8,22.1,29.76,NNE,28,3.6,5.0,62,0.00,CLR,,0.01,WeatherDisplay:10.37,2013-01-01 19:17:00,
2013-01-01 14:22:00,33.1,22.2,29.75,NNE,28,7.2,11.5,64,0.00,CLR,,0.01,WeatherDisplay:10.37,2013-01-01 19:22:00,
2013-01-01 14:27:00,32.5,21.7,29.76,NNE,19,3.7,10.4,64,0.00,CLR,,0.01,WeatherDisplay:10.37,2013-01-01 19:27:00,
2013-01-01 14:33:00,32.1,21.7,29.76,North,11,8.0,11.5,65,0.00,CLR,,0.01,WeatherDisplay:10.37,2013-01-01 19:33:00,
2013-01-01 14:38:00,31.6,21.5,29.77,NNE,29,9.8,13.8,66,0.00,CLR,,0.01,WeatherDisplay:10.37,2013-01-01 19:38:00,
2013-01-01 14:43:00,31.5,21.8,29.78,North,349,6.9,10.4,67,0.00,CLR,,0.01,WeatherDisplay:10.37,2013-01-01 19:43:00,
2013-01-01 18:30:00,28.1,13.6,29.87,NW,315,0.0,10.4,54,0.00,CLR,,0.01,WeatherDisplay:10.37,2013-01-01 23:30:00,
2013-01-01 18:35:00,28.1,13.6,29.87,NNW,346,1.0,3.5,54,0.00,RA,,0.01,WeatherDisplay:10.37,2013-01-01 23:35:00,
2013-01-01 18:40:00,28.1,13.1,29.87,NNW,332,3.4,8.1,53,0.00,RA,,0.01,WeatherDisplay:10.37,2013-01-01 23:40:00,
2013-01-01 19:02:00,27.6,13.1,29.87,NNW,332,5.5,5.8,54,0.00,CLR,,0.01,WeatherDisplay:10.37,2013-01-02 00:02:00,
2013-01-01 19:08:00,27.3,12.8,29.87,NW,325,0.0,5.8,54,0.00,CLR,,0.01,WeatherDisplay:10.37,2013-01-02 00:08:00,
2013-01-01 19:17:00,27.0,13.0,29.88,NNW,331,0.0,5.8,55,0.00,CLR,,0.01,WeatherDisplay:10.37,2013-01-02 00:17:00,
2013-01-01 19:22:00,26.9,13.3,29.89,NNW,347,3.8,3.8,56,0.00,CLR,,0.01,WeatherDisplay:10.37,2013-01-02 00:22:00,
2013-01-01 19:28:00,26.7,13.1,29.88,NNW,335,0.0,4.6,56,0.00,CLR,,0.01,WeatherDisplay:10.37,2013-01-02 00:28:00,
2013-01-01 19:34:00,26.4,12.8,29.89,NNE,32,0.0,4.6,56,0.00,CLR,,0.01,WeatherDisplay:10.37,2013-01-02 00:34:00,
2013-01-01 19:40:00,26.3,12.7,29.89,NNW,333,1.5,2.3,56,0.00,CLR,,0.01,WeatherDisplay:10.37,2013-01-02 00:40:00,
2013-01-01 19:45:00,26.0,12.4,29.89,NW,305,3.2,5.8,56,0.00,CLR,,0.01,WeatherDisplay:10.37,2013-01-02 00:45:00,
2013-01-01 19:54:00,25.7,12.6,29.89,North,360,3.2,4.0,57,0.00,CLR,,0.01,WeatherDisplay:10.37,2013-01-02 00:54:00,
2013-01-01 19:59:00,25.4,11.9,29.89,NE,53,3.5,9.2,56,0.00,CLR,,0.01,WeatherDisplay:10.37,2013-01-02 00:59:00,
2013-01-01 20:04:00,25.1,12.0,29.88,North,355,3.8,6.9,57,0.00,CLR,,0.01,WeatherDisplay:10.37,2013-01-02 01:04:00,
2013-01-01 20:09:00,24.8,11.7,29.88,NNE,31,7.4,13.8,57,0.00,CLR,,0.01,WeatherDisplay:10.37,2013-01-02 01:09:00,
2013-01-01 20:21:00,24.4,11.7,29.89,NNE,24,7.8,10.4,58,0.00,CLR,,0.01,WeatherDisplay:10.37,2013-01-02 01:21:00,
2013-01-01 20:31:00,24.1,11.4,29.89,North,355,5.4,10.4,58,0.00,CLR,,0.01,WeatherDisplay:10.37,2013-01-02 01:31:00,
2013-01-01 20:38:00,23.8,11.2,29.89,NE,56,0.0,6.9,58,0.00,CLR,,0.01,WeatherDisplay:10.37,2013-01-02 01:38:00,
2013-01-01 20:43:00,23.6,11.0,29.89,NNE,30,1.1,3.5,58,0.00,CLR,,0.01,WeatherDisplay:10.37,2013-01-02 01:43:00,
2013-01-01 20:48:00,23.5,11.3,29.89,NNE,15,0.3,3.5,59,0.00,CLR,,0.01,WeatherDisplay:10.37,2013-01-02 01:48:00,
2013-01-01 20:53:00,23.3,11.4,29.90,NNE,15,0.1,1.1,60,0.00,CLR,,0.01,WeatherDisplay:10.37,2013-01-02 01:53:00,
2013-01-01 20:59:00,23.0,11.5,29.90,NNE,15,0.0,0.0,61,0.00,CLR,,0.01,WeatherDisplay:10.37,2013-01-02 01:59:00,
2013-01-01 21:05:00,22.7,11.3,29.91,NNE,15,0.0,0.0,61,0.00,CLR,,0.01,WeatherDisplay:10.37,2013-01-02 02:05:00,
2013-01-01 21:10:00,22.5,11.4,29.91,NNE,15,0.2,1.1,62,0.00,CLR,,0.01,WeatherDisplay:10.37,2013-01-02 02:10:00,
2013-01-01 21:15:00,22.4,10.6,29.91,NNE,31,0.8,2.3,60,0.00,CLR,,0.01,WeatherDisplay:10.37,2013-01-02 02:15:00,
2013-01-01 21:20:00,22.4,10.6,29.91,NNE,28,1.7,3.5,60,0.00,CLR,,0.01,WeatherDisplay:10.37,2013-01-02 02:20:00,
2013-01-01 21:25:00,22.4,10.2,29.91,NNE,27,0.0,1.1,59,0.00,CLR,,0.01,WeatherDisplay:10.37,2013-01-02 02:25:00,
2013-01-01 21:30:00,22.2,10.8,29.91,NNE,27,0.0,0.0,61,0.00,CLR,,0.01,WeatherDisplay:10.37,2013-01-02 02:30:00,
2013-01-01 21:36:00,22.1,11.1,29.91,NNE,27,0.0,0.0,62,0.00,CLR,,0.01,WeatherDisplay:10.37,2013-01-02 02:36:00,
2013-01-01 21:41:00,21.8,10.8,29.91,NNE,27,1.0,3.5,62,0.00,CLR,,0.01,WeatherDisplay:10.37,2013-01-02 02:41:00,
2013-01-01 21:46:00,21.6,10.6,29.91,NNW,346,0.2,1.1,62,0.00,CLR,,0.01,WeatherDisplay:10.37,2013-01-02 02:46:00,
2013-01-01 21:52:00,21.4,10.7,29.91,NNW,339,0.6,3.0,63,0.00,CLR,,0.01,WeatherDisplay:10.37,2013-01-02 02:52:00,
2013-01-01 21:57:00,21.3,9.9,29.91,NNW,334,1.5,2.3,61,0.00,CLR,,0.01,WeatherDisplay:10.37,2013-01-02 02:57:00,
2013-01-01 22:02:00,21.3,9.9,29.92,NNW,332,0.2,2.3,61,0.00,CLR,,0.01,WeatherDisplay:10.37,2013-01-02 03:02:00,
2013-01-01 22:07:00,21.3,9.6,29.92,NNW,343,0.9,3.5,60,0.00,CLR,,0.01,WeatherDisplay:10.37,2013-01-02 03:07:00,
2013-01-01 22:12:00,21.0,9.6,29.92,ENE,61,0.0,0.0,61,0.00,CLR,,0.01,WeatherDisplay:10.37,2013-01-02 03:12:00,
2013-01-01 22:18:00,20.5,9.2,29.92,ENE,61,0.0,0.0,61,0.00,CLR,,0.01,WeatherDisplay:10.37,2013-01-02 03:18:00,
2013-01-01 22:23:00,20.0,9.4,29.93,ENE,61,0.0,0.0,63,0.00,CLR,,0.01,WeatherDisplay:10.37,2013-01-02 03:23:00,
2013-01-01 22:28:00,19.7,9.1,29.92,ENE,61,0.0,0.0,63,0.00,CLR,,0.01,WeatherDisplay:10.37,2013-01-02 03:28:00,
2013-01-01 22:33:00,19.5,8.9,29.93,ENE,61,0.0,0.0,63,0.00,CLR,,0.01,WeatherDisplay:10.37,2013-01-02 03:33:00,
2013-01-01 22:39:00,19.2,9.0,29.93,ENE,61,0.0,0.0,64,0.00,CLR,,0.01,WeatherDisplay:10.37,2013-01-02 03:39:00,
2013-01-01 22:44:00,19.1,8.9,29.93,ENE,61,0.0,0.0,64,0.00,CLR,,0.01,WeatherDisplay:10.37,2013-01-02 03:44:00,
2013-01-01 22:49:00,18.9,9.1,29.93,ENE,61,0.0,0.0,65,0.00,CLR,,0.01,WeatherDisplay:10.37,2013-01-02 03:49:00,
2013-01-01 22:55:00,18.6,9.1,29.93,ENE,61,0.0,0.0,66,0.00,CLR,,0.01,WeatherDisplay:10.37,2013-01-02 03:55:00,
2013-01-01 23:00:00,18.4,8.9,29.93,ENE,61,0.0,0.0,66,0.00,CLR,,0.01,WeatherDisplay:10.37,2013-01-02 04:00:00,
2013-01-01 23:05:00,18.3,8.8,29.93,ENE,61,0.0,0.0,66,0.00,CLR,,0.01,WeatherDisplay:10.37,2013-01-02 04:05:00,
2013-01-01 23:10:00,18.1,9.0,29.93,ENE,61,0.0,0.0,67,0.00,CLR,,0.01,WeatherDisplay:10.37,2013-01-02 04:10:00,
2013-01-01 23:15:00,18.1,8.6,29.94,ENE,61,0.5,1.1,66,0.00,CLR,,0.01,WeatherDisplay:10.37,2013-01-02 04:15:00,
2013-01-01 23:20:00,18.1,8.6,29.94,ENE,61,0.1,1.1,66,0.00,CLR,,0.01,WeatherDisplay:10.37,2013-01-02 04:20:00,
2013-01-01 23:26:00,18.3,8.5,29.94,ENE,61,0.0,0.0,65,0.00,CLR,,0.01,WeatherDisplay:10.37,2013-01-02 04:26:00,
2013-01-01 23:31:00,18.1,8.6,29.94,ENE,61,0.0,0.0,66,0.00,CLR,,0.01,WeatherDisplay:10.37,2013-01-02 04:31:00,
2013-01-01 23:36:00,17.8,8.4,29.94,ENE,61,0.0,0.0,66,0.00,CLR,,0.01,WeatherDisplay:10.37,2013-01-02 04:36:00,
2013-01-01 23:57:00,17.2,8.1,29.93,ENE,61,0.0,0.0,67,0.00,CLR,,0.01,WeatherDisplay:10.37,2013-01-02 04:57:00,